Bei Facebook empfehlenBei Twitter postenGoogle plusPinterest

Das Wetter im Erzgebirge am 01.07.2016

Wetter und Klima am 01.07.2016 Holzhau im Erzgebirge (630m ü.NN)
Letzte gemessene Temperatur und Uhrzeit der Messung23:45:00 Uhr14.30 °C
Temperatur (Maximum / Höchstwert) und Uhrzeit der Messung16:45:00 Uhr26.60 °C
Temperatur (Minimum / Tiefstwert) und Uhrzeit der Messung05:45:0010.80 °C
Errechneter Absolutwert der Temperaturschwankungen zwischen Tmin und Tmax des Tages15.80 K
Errechnete Tagesmitteltemperatur18.70625 °C
Gesamt - Niederschlag des Tages (in flüssiger Form)0.00 Liter / m²
Luftdruck (Maximum / Höchstwert) und Zeitpunkt der Messung11:30:00 Uhr1014.80 hPa
Luftdruck (Minimum / Tiefstwert) und Zeitpunkt der Messung20:00:00 Uhr1013.10 hPa
Errechneter Absolutwert der Luftdruckschwankungen des Tages1.70 hPa
Höchste gemessene Windgeschwindigkeit und Uhrzeit der Messung23:45:00 Uhr0.00 km/h
Errechnete Windhäufigkeit in Relation zu den Messwerten des Tages0.00000 %
Niedrigste Windkühle (Windchill) und Zeitpunkt der Messung05:45:00 Uhr10.80 °C
Taupunkt (Maximum / Höchstwert) und Uhrzeit der Messung07:45:00 Uhr18.20 °C
Taupunkt (Minimum / Tiefstwert) und Uhrzeit der Messung05:45:009.70 °C
Anzahl der automatisch eingelesenen Messwerte 96

Detaillierte Wetter- und Klima- Messwerte für den 01.07.2016 in Holzhau im Erzgebirge (630m ü.NN)
ZeitTemperaturLuftdruckRel. LuftfeuchteWindWindrichtungWindchillTaupunktNiederschlag l/m²
23:45:0014.30 °C1013.50 hPa86.00 %12.00 °C 
23:30:0014.20 °C1013.50 hPa85.00 %11.70 °C 
23:15:0014.20 °C1013.50 hPa84.00 %11.50 °C 
23:00:0014.30 °C1013.50 hPa83.00 %11.50 °C 
22:45:0014.50 °C1013.60 hPa81.00 %11.30 °C 
22:30:0014.90 °C1013.70 hPa80.00 %11.50 °C 
22:15:0015.40 °C1013.80 hPa78.00 %11.60 °C 
22:00:0015.90 °C1013.60 hPa77.00 %11.90 °C 
21:45:0016.60 °C1013.40 hPa75.00 %12.20 °C 
21:30:0017.40 °C1013.50 hPa73.00 %12.50 °C 
21:15:0018.40 °C1013.30 hPa70.00 %12.80 °C 
21:00:0019.60 °C1013.30 hPa68.00 %13.50 °C 
20:45:0020.60 °C1013.20 hPa65.00 %13.80 °C 
20:30:0021.10 °C1013.20 hPa64.00 %14.00 °C 
20:15:0021.60 °C1013.20 hPa62.00 %14.00 °C 
20:00:0022.10 °C1013.10 hPa61.00 %14.20 °C 
19:45:0022.50 °C1013.40 hPa60.00 %14.40 °C 
19:30:0022.90 °C1013.30 hPa59.00 %14.50 °C 
19:15:0023.60 °C1013.40 hPa58.00 %14.90 °C 
19:00:0023.80 °C1013.40 hPa58.00 %15.00 °C 
18:45:0023.80 °C1013.30 hPa60.00 %15.60 °C 
18:30:0023.90 °C1013.40 hPa60.00 %15.70 °C 
18:15:0023.80 °C1013.20 hPa66.00 %17.10 °C 
18:00:0023.30 °C1013.40 hPa65.00 %16.40 °C 
17:45:0023.60 °C1013.40 hPa62.00 %15.90 °C 
17:30:0024.40 °C1013.50 hPa58.00 %15.60 °C 
17:15:0025.00 °C1013.50 hPa55.00 %15.30 °C 
17:00:0025.50 °C1013.50 hPa54.00 %15.50 °C 
16:45:0026.60 °C1013.60 hPa52.00 %15.90 °C 
16:30:0026.60 °C1013.60 hPa52.00 %15.90 °C 
16:15:0026.30 °C1013.80 hPa54.00 %16.30 °C 
16:00:0026.30 °C1013.70 hPa55.00 %16.50 °C 
15:45:0025.20 °C1013.90 hPa56.00 %15.80 °C 
15:30:0025.30 °C1013.90 hPa56.00 %15.90 °C 
15:15:0025.90 °C1013.70 hPa56.00 %16.50 °C 
15:00:0024.90 °C1014.20 hPa59.00 %16.30 °C 
14:45:0024.90 °C1014.00 hPa59.00 %16.30 °C 
14:30:0024.50 °C1014.20 hPa58.00 %15.70 °C 
14:15:0024.50 °C1014.20 hPa57.00 %15.40 °C 
14:00:0024.90 °C1014.20 hPa58.00 %16.10 °C 
13:45:0024.40 °C1014.30 hPa60.00 %16.10 °C 
13:30:0023.60 °C1014.60 hPa63.00 %16.10 °C 
13:15:0023.10 °C1014.50 hPa62.00 %15.40 °C 
13:00:0023.00 °C1014.40 hPa61.00 %15.10 °C 
12:45:0023.10 °C1014.50 hPa66.00 %16.40 °C 
12:30:0021.30 °C1014.70 hPa66.00 %14.70 °C 
12:15:0022.30 °C1014.60 hPa65.00 %15.40 °C 
12:00:0023.00 °C1014.70 hPa64.00 %15.80 °C 
11:45:0023.50 °C1014.70 hPa66.00 %16.80 °C 
11:30:0022.10 °C1014.80 hPa65.00 %15.20 °C 
11:15:0022.90 °C1014.70 hPa62.00 %15.20 °C 
11:00:0024.30 °C1014.40 hPa60.00 %16.00 °C 
10:45:0023.90 °C1014.50 hPa63.00 %16.40 °C 
10:30:0023.80 °C1014.40 hPa62.00 %16.10 °C 
10:15:0022.80 °C1014.40 hPa64.00 %15.60 °C 
10:00:0021.80 °C1014.60 hPa66.00 %15.20 °C 
09:45:0021.80 °C1014.60 hPa67.00 %15.40 °C 
09:30:0021.60 °C1014.50 hPa69.00 %15.70 °C 
09:15:0021.40 °C1014.70 hPa70.00 %15.70 °C 
09:00:0021.20 °C1014.70 hPa71.00 %15.70 °C 
08:45:0021.10 °C1014.70 hPa71.00 %15.60 °C 
08:30:0021.20 °C1014.30 hPa72.00 %16.00 °C 
08:15:0021.10 °C1014.40 hPa74.00 %16.30 °C 
08:00:0020.90 °C1014.50 hPa80.00 %17.30 °C 
07:45:0020.40 °C1014.40 hPa87.00 %18.20 °C 
07:30:0018.80 °C1014.50 hPa93.00 %17.60 °C 
07:15:0015.90 °C1014.30 hPa94.00 %14.90 °C 
07:00:0014.30 °C1014.30 hPa95.00 %13.50 °C 
06:45:0012.60 °C1014.30 hPa94.00 %11.70 °C 
06:30:0011.80 °C1014.20 hPa94.00 %10.90 °C 
06:15:0011.40 °C1014.20 hPa94.00 %10.50 °C 
06:00:0011.00 °C1014.10 hPa93.00 %9.90 °C 
05:45:0010.80 °C1013.90 hPa93.00 %9.70 °C 
05:30:0010.80 °C1013.80 hPa93.00 %9.70 °C 
05:15:0010.80 °C1013.50 hPa93.00 %9.70 °C 
05:00:0010.80 °C1013.60 hPa93.00 %9.70 °C 
04:45:0010.90 °C1013.50 hPa93.00 %9.80 °C 
04:30:0010.90 °C1013.50 hPa93.00 %9.80 °C 
04:15:0011.00 °C1013.60 hPa93.00 %9.90 °C 
04:00:0011.20 °C1013.50 hPa93.00 %10.10 °C 
03:45:0011.30 °C1013.40 hPa93.00 %10.20 °C 
03:30:0011.20 °C1013.20 hPa93.00 %10.10 °C 
03:15:0011.00 °C1013.20 hPa92.00 %9.80 °C 
03:00:0011.10 °C1013.30 hPa92.00 %9.90 °C 
02:45:0011.30 °C1013.80 hPa92.00 %10.00 °C 
02:30:0011.30 °C1013.60 hPa92.00 %10.00 °C 
02:15:0011.50 °C1013.60 hPa92.00 %10.20 °C 
02:00:0011.60 °C1013.50 hPa92.00 %10.30 °C 
01:45:0011.60 °C1013.50 hPa92.00 %10.30 °C 
01:30:0011.80 °C1013.50 hPa91.00 %10.40 °C 
01:15:0011.90 °C1013.50 hPa91.00 %10.50 °C 
01:00:0011.80 °C1013.50 hPa91.00 %10.40 °C 
00:45:0011.80 °C1013.50 hPa90.00 %10.20 °C 
00:30:0012.10 °C1013.80 hPa90.00 %10.50 °C 
00:15:0012.30 °C1013.70 hPa90.00 %10.70 °C 
00:00:0012.50 °C1013.70 hPa89.00 %10.70 °C 

Permanenter Link zu dieser Seite: Wetter im Erzgebirge am 01.07.2016
Performance-Info: Die Erstellung der Seite / Statistik(en) / Tabelle(n) erforderte 5 Datenbankserver-Abfrage(n) und dauerte 124 Millisekunden. (Dieser Messwert ist von der Gesamt-Auslastung des Servers abhängig.)
Erzgebirge - Wetter | Erzgebirge - Wetter (Mobilgeräte) | Komplette Klimadatenbank